createdAt,value
2019-04-10T00:03:41.742Z,24.77
2019-04-10T00:08:58.869Z,20.73
2019-04-10T00:14:18.367Z,24.20
2019-04-10T00:19:37.973Z,23.23
2019-04-10T00:24:56.667Z,24.67
2019-04-10T00:30:15.280Z,17.37
2019-04-10T00:35:35.089Z,21.60
2019-04-10T00:40:53.755Z,23.97
2019-04-10T00:46:12.407Z,20.87
2019-04-10T00:51:31.042Z,18.90
2019-04-10T00:56:50.561Z,20.27
2019-04-10T01:02:10.112Z,19.80
2019-04-10T01:07:36.457Z,19.83
2019-04-10T01:12:49.155Z,23.43
2019-04-10T01:18:07.785Z,18.40
2019-04-10T01:23:26.241Z,19.60
2019-04-10T01:28:45.203Z,22.77
2019-04-10T01:34:03.873Z,21.70
2019-04-10T01:39:24.352Z,23.73
2019-04-10T01:44:42.918Z,21.23
2019-04-10T01:50:02.295Z,30.60
2019-04-10T01:55:25.748Z,23.67
2019-04-10T02:00:43.781Z,21.10
2019-04-10T02:06:03.139Z,21.27
2019-04-10T02:11:21.846Z,15.80
2019-04-10T02:16:41.145Z,17.93
2019-04-10T02:22:00.303Z,16.30
2019-04-10T02:27:18.874Z,16.73
2019-04-10T02:32:39.237Z,19.87
2019-04-10T02:38:00.538Z,17.63
2019-04-10T02:43:18.878Z,17.23
2019-04-10T02:48:39.242Z,15.97
2019-04-10T02:53:58.240Z,19.97
2019-04-10T02:59:16.751Z,15.40
2019-04-10T03:04:37.077Z,17.47
2019-04-10T03:10:05.732Z,16.57
2019-04-10T03:15:17.210Z,16.15
2019-04-10T03:20:36.306Z,17.87
2019-04-10T03:25:54.906Z,20.47
2019-04-10T03:31:15.208Z,16.97
2019-04-10T03:36:38.144Z,20.87
2019-04-10T03:41:56.837Z,18.42
2019-04-10T03:47:15.454Z,20.33
2019-04-10T03:52:34.127Z,22.23
2019-04-10T03:57:53.344Z,18.42
2019-04-10T04:03:12.769Z,20.47
2019-04-10T04:08:32.006Z,17.53
2019-04-10T04:13:50.444Z,26.53
2019-04-10T04:19:10.026Z,20.43
2019-04-10T04:24:28.608Z,23.73
2019-04-10T04:29:47.557Z,23.23
2019-04-10T04:35:07.019Z,23.10
2019-04-10T04:40:25.877Z,25.93
2019-04-10T04:45:44.423Z,22.23
2019-04-10T04:51:03.276Z,23.17
2019-04-10T04:56:22.037Z,20.93
2019-04-10T05:01:40.473Z,26.82
2019-04-10T05:07:08.408Z,28.63
2019-04-10T05:12:27.702Z,25.00
2019-04-10T05:17:47.097Z,22.23
2019-04-10T05:23:06.227Z,18.57
2019-04-10T05:28:24.847Z,20.37
2019-04-10T05:33:43.455Z,22.13
2019-04-10T05:39:02.234Z,21.53
2019-04-10T05:44:20.808Z,23.02
2019-04-10T05:49:39.441Z,23.97
2019-04-10T05:54:57.997Z,24.37
2019-04-10T06:00:18.870Z,18.23
2019-04-10T06:05:38.287Z,20.85
2019-04-10T06:10:58.123Z,21.53
2019-04-10T06:16:17.317Z,19.70
2019-04-10T06:21:35.897Z,25.93
2019-04-10T06:26:54.509Z,19.73
2019-04-10T06:32:13.515Z,16.73
2019-04-10T06:37:32.557Z,24.10
2019-04-10T06:42:53.926Z,18.23
2019-04-10T06:48:11.657Z,13.83
2019-04-10T06:53:31.088Z,19.73
2019-04-10T06:58:49.908Z,17.87
2019-04-10T07:04:09.820Z,16.97
2019-04-10T07:09:29.580Z,17.57
2019-04-10T07:14:58.067Z,13.57
2019-04-10T07:20:18.361Z,14.60
2019-04-10T07:25:37.439Z,18.63
2019-04-10T07:30:59.388Z,14.93
2019-04-10T07:36:24.467Z,14.70
2019-04-10T07:41:43.087Z,14.37
2019-04-10T07:47:02.724Z,15.67
2019-04-10T07:52:22.543Z,17.03
2019-04-10T07:57:44.697Z,18.53
2019-04-10T08:03:01.949Z,20.37
2019-04-10T08:08:21.460Z,24.97
2019-04-10T08:13:40.755Z,21.87
2019-04-10T08:18:59.861Z,22.97
2019-04-10T08:24:18.452Z,17.57
2019-04-10T08:29:39.318Z,15.28
2019-04-10T08:34:58.243Z,17.97
2019-04-10T08:40:17.405Z,19.52
2019-04-10T08:45:44.966Z,17.97
2019-04-10T08:50:56.821Z,22.17
2019-04-10T08:56:16.214Z,19.43
2019-04-10T09:01:35.517Z,19.65
2019-04-10T09:06:54.401Z,20.27
2019-04-10T09:12:13.610Z,20.63
2019-04-10T09:17:33.457Z,21.07
2019-04-10T09:23:14.517Z,18.30
2019-04-10T09:28:14.103Z,19.97
2019-04-10T09:33:32.686Z,22.87
2019-04-10T09:38:51.341Z,20.60
2019-04-10T09:44:10.326Z,22.90
2019-04-10T09:49:35.616Z,17.87
2019-04-10T09:54:49.336Z,22.43
2019-04-10T10:00:10.397Z,22.63
2019-04-10T10:16:30.436Z,20.73
2019-04-10T10:21:50.525Z,23.03
2019-04-10T10:27:09.491Z,20.07
2019-04-10T10:32:28.901Z,21.80
2019-04-10T10:37:48.466Z,17.67
2019-04-10T10:43:07.873Z,21.37
2019-04-10T10:48:27.407Z,17.83
2019-04-10T10:53:46.183Z,17.90
2019-04-10T10:59:05.043Z,20.73
2019-04-10T11:04:23.672Z,20.63
2019-04-10T11:09:42.307Z,17.23
2019-04-10T11:15:03.663Z,18.15
2019-04-10T11:20:24.034Z,19.40
2019-04-10T11:25:43.837Z,19.83
2019-04-10T11:31:05.364Z,21.27
2019-04-10T11:36:24.330Z,19.87
2019-04-10T11:41:43.368Z,18.67
2019-04-10T11:47:02.881Z,23.13
2019-04-10T11:52:32.996Z,16.70
2019-04-10T11:57:45.884Z,20.90
2019-04-10T12:03:04.619Z,18.57
2019-04-10T12:08:44.736Z,22.93
2019-04-10T12:13:46.226Z,20.13
2019-04-10T12:19:06.994Z,27.93
2019-04-10T12:24:26.011Z,17.33
2019-04-10T12:29:44.714Z,22.77
2019-04-10T12:35:04.727Z,17.03
2019-04-10T12:40:23.600Z,22.85
2019-04-10T12:45:42.521Z,28.67
2019-04-10T12:51:01.462Z,23.23
2019-04-10T12:56:22.053Z,25.17
2019-04-10T13:01:40.904Z,26.87
2019-04-10T13:06:59.470Z,21.43
2019-04-10T13:12:18.241Z,22.93
2019-04-10T13:17:37.022Z,20.70
2019-04-10T13:22:56.229Z,21.50
2019-04-10T13:28:17.000Z,20.83
2019-04-10T13:33:36.357Z,26.97
2019-04-10T13:38:55.118Z,33.20
2019-04-10T13:44:14.116Z,22.00
2019-04-10T13:49:33.786Z,25.50
2019-04-10T13:54:52.663Z,22.13
2019-04-10T14:00:13.601Z,29.82
2019-04-10T14:05:34.013Z,21.60
2019-04-10T14:10:53.029Z,24.90
2019-04-10T14:16:12.843Z,20.23
2019-04-10T14:21:31.653Z,26.07
2019-04-10T14:27:10.036Z,22.17
2019-04-10T14:32:31.399Z,20.73
2019-04-10T14:37:50.169Z,22.50
2019-04-10T14:43:08.865Z,22.17
2019-04-10T14:48:27.909Z,21.30
2019-04-10T14:53:46.933Z,21.10
2019-04-10T14:59:05.911Z,21.60
2019-04-10T15:04:24.868Z,22.07
2019-04-10T15:09:43.558Z,21.43
2019-04-10T15:15:02.275Z,20.77
2019-04-10T15:20:21.054Z,15.83
2019-04-10T15:25:39.759Z,16.30
2019-04-10T15:30:59.939Z,18.77
2019-04-10T15:36:18.704Z,22.13
2019-04-10T15:41:37.396Z,19.57
2019-04-10T15:47:07.332Z,19.57
2019-04-10T15:52:17.580Z,19.70
2019-04-10T15:57:45.838Z,18.30
2019-04-10T16:03:00.753Z,17.47
2019-04-10T16:08:20.431Z,18.50
2019-04-10T16:13:40.917Z,16.13
2019-04-10T16:19:14.051Z,17.20
2019-04-10T16:24:33.125Z,18.73
2019-04-10T16:29:51.848Z,13.37
2019-04-10T16:35:12.204Z,14.87
2019-04-10T16:40:33.921Z,13.20
2019-04-10T16:45:53.008Z,18.80
2019-04-10T16:51:12.097Z,17.20
2019-04-10T16:56:31.780Z,14.73
2019-04-10T17:01:51.546Z,19.83
2019-04-10T17:07:10.653Z,12.07
2019-04-10T17:12:29.632Z,18.93
2019-04-10T17:17:54.863Z,17.65
2019-04-10T17:23:20.555Z,13.53
2019-04-10T17:28:40.691Z,14.90
2019-04-10T17:34:00.916Z,14.87
2019-04-10T17:39:22.909Z,12.53
2019-04-10T17:44:42.951Z,14.03
2019-04-10T17:50:06.159Z,13.30
2019-04-10T17:55:25.352Z,15.73
2019-04-10T18:00:52.033Z,14.57
2019-04-10T18:06:10.999Z,10.93
2019-04-10T18:11:30.090Z,12.33
2019-04-10T18:22:24.722Z,10.43
2019-04-10T18:27:43.342Z,11.80
2019-04-10T18:33:03.221Z,13.63
2019-04-10T18:38:23.620Z,11.60
2019-04-10T18:43:42.558Z,12.77
2019-04-10T18:49:03.158Z,11.33
2019-04-10T18:54:22.879Z,12.65
2019-04-10T18:59:55.010Z,14.77
2019-04-10T19:05:17.973Z,13.37
2019-04-10T19:10:36.872Z,12.82
2019-04-10T19:15:55.537Z,9.93
2019-04-10T19:21:15.626Z,9.73
2019-04-10T19:26:35.584Z,14.67
2019-04-10T19:31:58.288Z,10.47
2019-04-10T19:37:16.918Z,9.70
2019-04-10T19:42:37.657Z,13.50
2019-04-10T19:47:57.029Z,18.13
2019-04-10T19:53:17.150Z,10.03
2019-04-10T19:58:36.506Z,12.70
2019-04-10T20:03:56.319Z,9.53
2019-04-10T20:09:14.879Z,10.80
2019-04-10T20:14:34.622Z,10.93
2019-04-10T20:19:55.658Z,13.37
2019-04-10T20:25:14.376Z,11.90
2019-04-10T20:30:34.967Z,16.97
2019-04-10T20:35:53.556Z,9.25
2019-04-10T20:41:12.161Z,11.90
2019-04-10T20:46:30.874Z,11.10
2019-04-10T20:51:50.455Z,11.17
2019-04-10T20:57:09.010Z,13.57
2019-04-10T21:02:28.500Z,9.60
2019-04-10T21:07:48.033Z,13.47
2019-04-10T21:13:06.688Z,11.87
2019-04-10T21:18:25.461Z,11.07
2019-04-10T21:23:44.316Z,14.13
2019-04-10T21:29:04.575Z,7.40
2019-04-10T21:34:28.531Z,9.57
2019-04-10T21:39:47.201Z,11.63
2019-04-10T21:45:07.621Z,10.40
2019-04-10T21:50:26.986Z,14.37
2019-04-10T21:55:45.875Z,10.47
2019-04-10T22:01:07.489Z,9.40
2019-04-10T22:06:30.560Z,8.07
2019-04-10T22:11:50.820Z,10.50
2019-04-10T22:17:10.797Z,9.97
2019-04-10T22:22:29.370Z,9.33
2019-04-10T22:27:47.993Z,9.60
2019-04-10T22:33:07.660Z,16.27
2019-04-10T22:38:27.234Z,11.07
2019-04-10T22:43:46.978Z,10.57
2019-04-10T22:49:06.267Z,10.43
2019-04-10T22:54:24.836Z,8.08
2019-04-10T22:59:43.518Z,9.03
2019-04-10T23:05:02.078Z,9.67
2019-04-10T23:10:21.214Z,9.27
2019-04-10T23:15:39.960Z,11.80
2019-04-10T23:20:58.622Z,8.93
2019-04-10T23:26:18.802Z,9.87
2019-04-10T23:31:37.464Z,10.43
2019-04-10T23:36:56.163Z,11.03
2019-04-10T23:42:14.946Z,9.70
2019-04-10T23:47:34.030Z,10.63
2019-04-10T23:52:52.676Z,8.28
2019-04-10T23:58:11.292Z,11.33
